Latest Weather Observations for Tin Can Bay (Defence)

IDQ60801

Issued at 5:22 pm EST Friday 18 January 2019 (issued every 10 minutes, with the page automatically refreshed every 10 minutes)

About weather observations | Map of weather stations | Latest weather observations for QLD | Other Formats
Station Details ID: 140010 Name: TIN CAN BAY (DEFENCE) Lat: -25.94 Lon: 152.96 Height: 31.26 m
Data from the previous 72 hours. | See also: Recent months at Tin Can Bay (Defence)
Date/Time
EST
Temp
°C
App
Temp
°C
Dew
Point
°C
Rel
Hum
%
Delta-T
°C
Wind Press
QNH
hPa
Press
MSL
hPa
Rain since
9am
mm
Dir  Spd
km/h
Gust
km/h
Spd
kts
Gust
kts
18/05:00pm 27.4 27.3 17.0 53 6.5 ENE 13 24 7 13 - - 0.0
18/04:30pm 28.2 28.0 16.8 50 7.1 ENE 13 20 7 11 - - 0.0
18/04:00pm 28.2 28.0 16.8 50 7.1 NE 13 20 7 11 - - 0.0
18/03:30pm 28.7 28.7 17.2 49 7.2 ENE 13 24 7 13 - - 0.0
18/03:00pm 28.6 29.0 18.1 53 6.7 ENE 13 24 7 13 - - 0.0
18/02:30pm 28.8 29.4 18.6 54 6.6 NE 13 24 7 13 - - 0.0
18/02:00pm 28.8 28.9 18.3 53 6.7 NE 15 22 8 12 - - 0.0
18/01:30pm 29.5 29.9 18.9 53 6.9 NE 15 26 8 14 - - 0.0
18/01:00pm 29.1 28.8 18.2 51 7.0 ENE 17 26 9 14 - - 0.0
18/12:30pm 29.1 29.0 18.8 53 6.6 ENE 17 24 9 13 - - 0.0
18/12:00pm 29.1 29.4 17.9 50 7.1 NE 13 28 7 15 - - 0.0
18/11:30am 29.4 29.3 17.9 50 7.3 NE 15 30 8 16 - - 0.0
18/11:00am 28.6 28.8 16.8 48 7.4 E 11 22 6 12 - - 0.0
18/10:30am 28.9 28.6 17.4 49 7.3 NE 15 24 8 13 - - 0.0
18/10:00am 29.3 30.2 17.5 49 7.5 E 9 15 5 8 - - 0.0
18/09:30am 28.2 28.1 16.1 47 7.5 E 11 20 6 11 - - 0.0
18/09:00am 28.1 28.5 17.3 52 6.8 ENE 11 22 6 12 - - 0.2
18/08:30am 26.8 28.3 19.7 65 4.6 NE 11 20 6 11 - - 0.2
18/08:00am 24.2 27.9 19.9 77 2.8 CALM 0 0 0 0 - - 0.2
18/07:30am 23.2 25.9 19.4 79 2.4 SSE 4 6 2 3 - - 0.2
18/07:00am 23.3 25.9 18.4 74 3.1 S 2 6 1 3 - - 0.2
18/06:30am 22.4 24.5 18.0 76 2.7 SSE 4 7 2 4 - - 0.2
18/06:00am 21.2 23.9 17.8 81 2.1 CALM 0 0 0 0 - - 0.2
18/05:30am 21.4 23.5 18.0 81 2.1 S 4 7 2 4 - - 0.2
18/05:00am 20.5 23.2 17.7 84 1.7 CALM 0 0 0 0 - - 0.2
18/04:30am 20.6 23.3 17.8 84 1.7 CALM 0 0 0 0 - - 0.2
18/04:00am 20.5 22.8 17.7 84 1.7 S 2 6 1 3 - - 0.2
18/03:30am 19.1 21.6 17.2 89 1.2 CALM 0 0 0 0 - - 0.2
18/03:00am 18.8 21.2 17.1 90 1.0 CALM 0 0 0 0 - - 0.2
18/02:30am 18.4 20.6 16.6 89 1.1 CALM 0 0 0 0 - - 0.2
18/02:00am 18.9 20.7 16.5 86 1.4 SSE 2 6 1 3 - - 0.2
18/01:30am 19.4 21.8 17.0 86 1.5 CALM 0 0 0 0 - - 0.2
18/01:00am 19.8 22.3 17.2 85 1.6 CALM 0 0 0 0 - - 0.2
18/12:30am 20.3 22.7 16.9 81 2.1 CALM 0 0 0 0 - - 0.2
18/12:00am 21.4 24.0 17.4 78 2.5 CALM 0 0 0 0 - - 0.2
 
Date/Time
EST
Temp
°C
App
Temp
°C
Dew
Point
°C
Rel
Hum
%
Delta-T
°C
Wind Press
QNH
hPa
Press
MSL
hPa
Rain since
9am
mm
Dir  Spd
km/h
Gust
km/h
Spd
kts
Gust
kts
17/11:30pm 21.4 24.0 17.4 78 2.5 CALM 0 2 0 1 - - 0.2
17/11:00pm 22.2 24.8 17.6 75 2.8 CALM 0 4 0 2 - - 0.2
17/10:30pm 21.5 24.4 18.1 81 2.1 CALM 0 2 0 1 - - 0.2
17/10:00pm 20.9 23.6 17.7 82 2.0 CALM 0 0 0 0 - - 0.2
17/09:30pm 21.2 23.7 17.2 78 2.5 CALM 0 0 0 0 - - 0.2
17/09:00pm 21.3 23.7 17.1 77 2.6 CALM 0 0 0 0 - - 0.2
17/08:30pm 22.5 25.1 17.4 73 3.2 CALM 0 0 0 0 - - 0.2
17/08:00pm 23.4 25.6 17.4 69 3.7 ESE 2 4 1 2 - - 0.2
17/07:30pm 23.6 26.0 17.1 67 4.0 CALM 0 2 0 1 - - 0.2
17/07:00pm 24.5 26.8 16.7 61 4.8 CALM 0 4 0 2 - - 0.2
17/06:30pm 25.6 26.7 16.7 58 5.5 E 6 9 3 5 - - 0.2
17/06:00pm 26.4 26.5 16.6 55 6.1 ENE 11 17 6 9 - - 0.2
17/05:30pm 27.3 27.2 16.9 53 6.5 ENE 13 19 7 10 - - 0.2
17/05:00pm 27.8 27.7 17.0 51 6.8 ENE 13 19 7 10 - - 0.2
17/04:30pm 28.0 27.4 16.6 50 7.1 ENE 15 22 8 12 - - 0.2
17/04:00pm 28.2 27.8 16.1 47 7.5 NE 13 22 7 12 - - 0.2
17/03:30pm 28.3 27.7 16.6 49 7.3 ENE 15 24 8 13 - - 0.2
17/03:00pm 29.3 29.1 17.5 49 7.5 NE 15 28 8 15 - - 0.2
17/02:30pm 29.0 28.6 16.2 46 7.9 ENE 13 24 7 13 - - 0.2
17/02:00pm 29.1 28.1 16.6 46 7.8 NE 17 28 9 15 - - 0.2
17/01:30pm 29.1 27.7 15.6 44 8.3 ENE 17 28 9 15 - - 0.2
17/01:00pm 29.0 27.9 14.4 41 8.8 ENE 13 26 7 14 - - 0.2
17/12:30pm 29.0 27.9 15.2 43 8.4 ENE 15 33 8 18 - - 0.2
17/12:00pm 29.1 28.3 16.0 45 8.1 ENE 15 28 8 15 - - 0.2
17/11:30am 28.8 29.2 17.3 49 7.3 ENE 11 26 6 14 - - 0.2
17/11:00am 28.2 28.7 18.3 55 6.3 ENE 13 22 7 12 - - 0.2
17/10:30am 28.3 29.1 19.0 57 6.0 ENE 13 19 7 10 - - 0.2
17/10:00am 27.5 28.4 18.5 58 5.8 ENE 11 20 6 11 - - 0.0
17/09:30am 26.9 29.4 19.8 65 4.6 ENE 6 13 3 7 - - 0.0
17/09:00am 25.5 28.6 20.3 73 3.4 ENE 4 7 2 4 - - 0.0
17/08:30am 24.5 27.8 20.8 80 2.4 SE 4 7 2 4 - - 0.0
17/08:00am 24.7 27.9 20.6 78 2.7 E 4 6 2 3 - - 0.0
17/07:30am 24.8 28.4 19.8 74 3.2 CALM 0 2 0 1 - - 0.0
17/07:00am 24.5 27.5 20.0 76 2.9 S 4 6 2 3 - - 0.0
17/06:30am 24.1 27.4 20.0 78 2.7 SW 2 4 1 2 - - 0.0
17/06:00am 22.1 24.6 19.8 87 1.5 SSW 6 7 3 4 - - 0.0
17/05:30am 21.1 24.7 19.7 92 0.9 CALM 0 0 0 0 - - 0.0
17/05:00am 20.8 23.7 19.1 90 1.1 S 2 6 1 3 - - 0.0
17/04:30am 21.1 24.9 20.1 94 0.6 CALM 0 4 0 2 - - 0.0
17/04:00am 20.4 23.7 19.2 93 0.8 CALM 0 0 0 0 - - 0.0
17/03:30am 20.6 24.0 19.3 92 0.8 CALM 0 0 0 0 - - 0.0
17/03:00am 21.4 24.5 19.5 89 1.2 SSE 2 4 1 2 - - 0.0
17/02:30am 21.7 25.2 19.6 88 1.3 CALM 0 0 0 0 - - 0.0
17/02:00am 22.0 25.5 19.5 86 1.6 CALM 0 0 0 0 - - 0.0
17/01:30am 22.4 26.2 20.1 87 1.5 CALM 0 0 0 0 - - 0.0
17/01:00am 22.6 26.3 19.9 85 1.7 CALM 0 0 0 0 - - 0.0
17/12:30am 23.4 27.4 20.5 84 1.9 CALM 0 0 0 0 - - 0.0
17/12:00am 24.0 28.0 20.5 81 2.3 CALM 0 0 0 0 - - 0.0
 
Date/Time
EST
Temp
°C
App
Temp
°C
Dew
Point
°C
Rel
Hum
%
Delta-T
°C
Wind Press
QNH
hPa
Press
MSL
hPa
Rain since
9am
mm
Dir  Spd
km/h
Gust
km/h
Spd
kts
Gust
kts
16/11:30pm 23.8 27.6 20.1 80 2.4 CALM 0 0 0 0 - - 0.0
16/11:00pm 24.1 27.9 20.2 79 2.5 CALM 0 2 0 1 - - 0.0
16/10:30pm 24.3 27.4 20.2 78 2.7 NNE 4 9 2 5 - - 0.0
16/10:00pm 25.0 28.4 20.9 78 2.7 ENE 4 6 2 3 - - 0.0
16/09:30pm 24.8 27.6 20.5 77 2.8 NE 6 9 3 5 - - 0.0
16/09:00pm 25.1 27.7 20.4 75 3.1 NE 7 11 4 6 - - 0.0
16/08:30pm 25.3 27.7 20.8 76 3.0 NE 9 17 5 9 - - 0.0
16/08:00pm 25.4 27.9 21.1 77 2.8 NE 9 17 5 9 - - 0.0
16/07:30pm 25.0 27.8 20.9 78 2.7 ENE 7 13 4 7 - - 0.0
16/07:00pm 25.1 27.9 20.4 75 3.1 ENE 6 11 3 6 - - 0.0
16/06:30pm 25.6 26.9 20.2 72 3.5 ENE 13 22 7 12 - - 0.0
16/06:00pm 26.2 28.1 20.5 71 3.7 ENE 11 20 6 11 - - 0.0
16/05:30pm 26.6 27.6 20.2 68 4.2 ENE 15 22 8 12 - - 0.0
16/05:00pm 27.3 28.3 19.4 62 5.1 ENE 13 22 7 12 - - 0.0
16/04:30pm 27.6 28.2 20.2 64 4.9 ENE 17 24 9 13 - - 0.0
16/04:00pm 28.1 29.3 19.9 61 5.4 ENE 13 20 7 11 - - 0.0
16/03:30pm 28.1 28.6 20.1 62 5.2 ENE 17 26 9 14 - - 0.0
16/03:00pm 28.7 29.0 19.6 58 5.9 ENE 17 24 9 13 - - 0.0
16/02:30pm 29.5 29.6 19.2 54 6.7 ENE 17 28 9 15 - - 0.0
16/02:00pm 29.3 29.2 18.7 52 6.8 ENE 17 26 9 14 - - 0.0
16/01:30pm 29.7 29.6 18.8 52 7.0 ENE 17 28 9 15 - - 0.0
16/01:00pm 29.8 29.5 18.3 50 7.4 ENE 17 24 9 13 - - 0.0
16/12:30pm 30.3 30.9 17.7 46 8.0 ENE 11 19 6 10 - - 0.0
16/12:00pm 30.5 31.7 18.2 47 7.9 NNE 9 17 5 9 - - 0.0
16/11:30am 29.4 31.0 17.9 50 7.3 SSE 6 11 3 6 - - 0.0
16/11:00am 29.1 31.4 17.6 50 7.3 N 2 4 1 2 - - 0.0
16/10:30am 28.2 31.0 18.0 54 6.5 CALM 0 2 0 1 - - 0.0
16/10:00am 28.5 30.4 17.7 52 6.8 NNE 4 9 2 5 - - 0.0
16/09:30am 28.8 30.7 17.7 51 7.0 SSE 4 7 2 4 - - 0.0
16/09:00am 28.0 29.8 18.4 56 6.1 W 6 7 3 4 - - 0.0
16/08:30am 27.0 29.6 18.3 59 5.5 NE 2 6 1 3 - - 0.0
16/08:00am 26.6 28.9 18.5 61 5.2 NNE 4 7 2 4 - - 0.0
16/07:30am 25.6 28.5 18.3 64 4.6 CALM 0 0 0 0 - - 0.0
16/07:00am 24.3 27.4 19.4 74 3.1 SW 2 4 1 2 - - 0.0
16/06:30am 22.2 24.7 19.0 82 2.0 SSW 4 6 2 3 - - 0.0
16/06:00am 19.5 22.5 18.5 94 0.6 CALM 0 0 0 0 - - 0.0
16/05:30am 18.9 21.7 17.9 94 0.6 CALM 0 4 0 2 - - 0.0
16/05:00am 18.9 21.8 18.1 95 0.5 CALM 0 0 0 0 - - 0.0
16/04:30am 18.8 21.4 17.6 93 0.7 CALM 0 0 0 0 - - 0.0
16/04:00am 19.1 21.9 17.9 93 0.7 CALM 0 2 0 1 - - 0.0
16/03:30am 19.3 22.1 18.0 92 0.8 CALM 0 0 0 0 - - 0.0
16/03:00am 19.6 22.5 18.1 91 0.9 CALM 0 0 0 0 - - 0.0
16/02:30am 20.1 23.0 18.2 89 1.2 CALM 0 2 0 1 - - 0.0
16/02:00am 21.5 24.0 19.1 86 1.5 S 4 6 2 3 - - 0.0
16/01:30am 21.6 24.6 19.2 86 1.5 SSE 2 4 1 2 - - 0.0
16/01:00am 22.2 24.8 19.2 83 1.9 SSE 4 6 2 3 - - 0.0
16/12:30am 22.2 24.5 19.4 84 1.8 S 6 6 3 3 - - 0.0
16/12:00am 22.4 25.9 19.6 84 1.8 CALM 0 0 0 0 - - 0.0
 
Date/Time
EST
Temp
°C
App
Temp
°C
Dew
Point
°C
Rel
Hum
%
Delta-T
°C
Wind Press
QNH
hPa
Press
MSL
hPa
Rain since
9am
mm
Dir  Spd
km/h
Gust
km/h
Spd
kts
Gust
kts
15/11:30pm 22.3 25.7 19.3 83 1.9 CALM 0 0 0 0 - - 0.0
15/11:00pm 22.9 26.5 19.7 82 2.1 CALM 0 2 0 1 - - 0.0
15/10:30pm 22.6 25.7 19.4 82 2.0 SSE 2 6 1 3 - - 0.0
15/10:00pm 22.6 25.7 19.6 83 1.9 SE 2 4 1 2 - - 0.0
15/09:30pm 22.9 26.4 19.5 81 2.2 CALM 0 4 0 2 - - 0.0
15/09:00pm 23.3 26.5 19.7 80 2.3 SE 2 6 1 3 - - 0.0
15/08:30pm 23.7 27.2 19.6 78 2.6 CALM 0 4 0 2 - - 0.0
15/08:00pm 24.0 27.1 19.5 76 2.9 ESE 2 4 1 2 - - 0.0
15/07:30pm 24.5 27.0 19.1 72 3.5 E 4 6 2 3 - - 0.0
15/07:00pm 25.0 27.2 19.1 70 3.8 ENE 6 11 3 6 - - 0.0
15/06:30pm 25.5 26.9 18.7 66 4.3 ENE 9 13 5 7 - - 0.0
15/06:00pm 26.2 27.3 18.9 64 4.7 ENE 11 19 6 10 - - 0.0
15/05:30pm 27.0 28.1 19.6 64 4.8 ENE 13 20 7 11 - - 0.0

Other Formats:

Comma delimited format used in spreadsheet applications
http://www.bom.gov.au/fwo/IDQ60801/IDQ60801.94420.axf

JavaScript Object Notation format (JSON) in row-major order
http://www.bom.gov.au/fwo/IDQ60801/IDQ60801.94420.json